Creston, Illinois
Current Conditions -  °F | °C
As of 3:55 AM on Sunday 21 Dec 2014 (Local Time) from KRPJ Reporting Station
Haze Haze  
Wind Chill: 24°   Ceiling: 2600
Heat Index: 31°   Visibility: 5mi
Dew Point: 29°   Wind: 8mph
Humidity: 93%   Direction: 160°SSE
Pressure: 30.18"   Gusts: NA
Location:  41.93°N, 88.96°W
Report Text: KRPJ 210955Z AUTO 16007KT 5SM BR BKN026 OVC033 00/M01 A3018 RMK AO2 T10051015
Loading
Personal Weather Stations






























Interactive Weather Map New forecast layout! Learn more

10-Day Weather Forecast

Advertisements
Track Severe Weather on mobile